createdAt,value
2018-04-24T00:02:36.989Z,4.62
2018-04-24T00:07:40.272Z,5.37
2018-04-24T00:12:43.956Z,5.05
2018-04-24T00:17:47.187Z,4.93
2018-04-24T00:22:50.906Z,5.35
2018-04-24T00:27:54.127Z,4.60
2018-04-24T00:32:57.766Z,4.90
2018-04-24T00:38:02.144Z,5.07
2018-04-24T00:43:05.481Z,5.82
2018-04-24T00:48:08.746Z,4.62
2018-04-24T00:53:23.995Z,4.57
2018-04-24T00:58:27.301Z,4.20
2018-04-24T01:03:43.386Z,3.97
2018-04-24T01:08:47.034Z,3.85
2018-04-24T01:13:50.295Z,4.55
2018-04-24T01:18:53.681Z,4.60
2018-04-24T01:23:56.968Z,5.35
2018-04-24T01:29:02.069Z,4.30
2018-04-24T01:34:05.795Z,4.03
2018-04-24T01:39:09.297Z,4.57
2018-04-24T01:44:12.946Z,5.30
2018-04-24T01:49:16.180Z,5.28
2018-04-24T01:54:19.414Z,5.47
2018-04-24T01:59:35.509Z,5.55
2018-04-24T02:04:38.748Z,5.53
2018-04-24T02:09:42.388Z,5.20
2018-04-24T02:14:45.730Z,5.03
2018-04-24T02:19:49.168Z,6.33
2018-04-24T02:24:52.812Z,5.80
2018-04-24T02:29:56.053Z,6.07
2018-04-24T02:34:59.271Z,5.77
2018-04-24T02:40:02.507Z,6.30
2018-04-24T02:45:06.160Z,5.50
2018-04-24T02:50:09.412Z,6.03
2018-04-24T02:55:12.634Z,5.18
2018-04-24T03:00:16.244Z,4.80
2018-04-24T03:05:19.481Z,4.90
2018-04-24T03:10:22.743Z,4.77
2018-04-24T03:15:26.011Z,5.70
2018-04-24T03:20:29.236Z,4.82
2018-04-24T03:25:32.457Z,4.90
2018-04-24T03:30:36.180Z,4.80
2018-04-24T03:35:39.855Z,5.70
2018-04-24T03:40:43.089Z,6.17
2018-04-24T03:45:46.369Z,7.27
2018-04-24T03:50:49.596Z,7.62
2018-04-24T03:55:52.833Z,7.00
2018-04-24T04:00:56.114Z,7.15
2018-04-24T04:05:59.334Z,6.43
2018-04-24T04:11:03.036Z,6.40
2018-04-24T04:16:06.319Z,6.72
2018-04-24T04:21:21.740Z,6.62
2018-04-24T04:26:25.123Z,7.10
2018-04-24T04:31:29.170Z,7.12
2018-04-24T04:36:32.477Z,6.43
2018-04-24T04:41:36.194Z,7.22
2018-04-24T04:46:39.512Z,6.45
2018-04-24T04:51:43.172Z,6.18
2018-04-24T04:56:46.630Z,6.22
2018-04-24T05:01:50.250Z,7.05
2018-04-24T05:06:53.861Z,6.43
2018-04-24T05:11:57.489Z,6.15
2018-04-24T05:17:00.744Z,5.57
2018-04-24T05:22:04.545Z,6.53
2018-04-24T05:27:07.772Z,6.22
2018-04-24T05:32:11.012Z,6.53
2018-04-24T05:37:14.400Z,6.22
2018-04-24T05:42:17.974Z,6.28
2018-04-24T05:47:21.343Z,7.07
2018-04-24T05:52:24.619Z,6.60
2018-04-24T05:57:27.846Z,7.28
2018-04-24T06:02:31.074Z,6.85
2018-04-24T06:07:34.693Z,7.43
2018-04-24T06:12:38.317Z,6.78
2018-04-24T06:17:41.548Z,6.30
2018-04-24T06:22:44.775Z,5.47
2018-04-24T06:27:48.118Z,6.35
2018-04-24T06:32:51.905Z,4.65
2018-04-24T06:37:55.117Z,5.95
2018-04-24T06:42:58.327Z,5.30
2018-04-24T06:48:01.545Z,5.78
2018-04-24T06:53:04.776Z,5.32
2018-04-24T06:58:08.641Z,4.97
2018-04-24T07:03:11.998Z,4.75
2018-04-24T07:08:15.620Z,4.82
2018-04-24T07:13:19.005Z,5.22
2018-04-24T07:18:22.232Z,5.97
2018-04-24T07:23:26.113Z,5.55
2018-04-24T07:28:29.337Z,5.75
2018-04-24T07:33:32.574Z,5.82
2018-04-24T07:38:35.799Z,5.12
2018-04-24T07:43:39.017Z,4.68
2018-04-24T07:48:42.249Z,5.43
2018-04-24T07:53:45.480Z,4.93
2018-04-24T07:58:49.098Z,4.95
2018-04-24T08:03:52.701Z,5.35
2018-04-24T08:08:56.724Z,5.75
2018-04-24T08:14:00.403Z,4.50
2018-04-24T08:19:03.642Z,4.93
2018-04-24T08:24:06.884Z,4.80
2018-04-24T08:29:10.131Z,5.28
2018-04-24T08:34:13.362Z,5.10
2018-04-24T08:39:16.626Z,5.57
2018-04-24T08:44:19.978Z,5.25
2018-04-24T08:49:23.723Z,6.18
2018-04-24T08:54:26.995Z,5.62
2018-04-24T08:59:30.221Z,6.37
2018-04-24T09:04:33.924Z,5.97
2018-04-24T09:09:37.154Z,5.65
2018-04-24T09:14:40.410Z,5.90
2018-04-24T09:19:43.649Z,5.87
2018-04-24T09:24:47.270Z,6.12
2018-04-24T09:29:56.435Z,5.87
2018-04-24T09:34:59.684Z,4.50
2018-04-24T09:40:02.985Z,4.68
2018-04-24T09:45:06.199Z,5.10
2018-04-24T09:50:09.832Z,4.32
2018-04-24T09:55:13.458Z,3.83
2018-04-24T10:00:22.886Z,3.72
2018-04-24T10:05:26.116Z,4.43
2018-04-24T10:10:29.733Z,4.50
2018-04-24T10:15:33.389Z,5.00
2018-04-24T10:20:37.636Z,4.75
2018-04-24T10:25:40.870Z,5.28
2018-04-24T10:30:44.527Z,5.70
2018-04-24T10:35:47.738Z,4.53
2018-04-24T10:40:50.957Z,5.37
2018-04-24T10:45:54.179Z,4.50
2018-04-24T10:50:57.509Z,4.32
2018-04-24T10:56:01.165Z,4.50
2018-04-24T11:01:04.367Z,4.00
2018-04-24T11:06:07.580Z,4.00
2018-04-24T11:11:10.845Z,3.22
2018-04-24T11:16:14.081Z,3.12
2018-04-24T11:21:17.366Z,3.72
2018-04-24T11:26:21.280Z,3.53
2018-04-24T11:31:24.904Z,2.92
2018-04-24T11:36:28.628Z,2.60
2018-04-24T11:41:32.336Z,2.60
2018-04-24T11:46:36.046Z,2.97
2018-04-24T11:51:39.354Z,2.85
2018-04-24T11:56:42.973Z,2.50
2018-04-24T12:01:46.695Z,2.58
2018-04-24T12:06:50.302Z,2.10
2018-04-24T12:11:53.920Z,2.33
2018-04-24T12:16:57.598Z,1.90
2018-04-24T12:22:00.809Z,2.30
2018-04-24T12:27:04.042Z,2.47
2018-04-24T12:32:07.664Z,2.05
2018-04-24T12:37:11.370Z,2.03
2018-04-24T12:42:15.060Z,2.28
2018-04-24T12:47:18.308Z,2.22
2018-04-24T12:52:21.994Z,3.10
2018-04-24T12:57:25.209Z,2.10
2018-04-24T13:02:28.530Z,2.67
2018-04-24T13:07:32.151Z,2.20
2018-04-24T13:12:35.762Z,2.75
2018-04-24T13:17:39.465Z,2.17
2018-04-24T13:22:42.691Z,3.10
2018-04-24T13:27:46.392Z,2.50
2018-04-24T13:32:50.039Z,3.35
2018-04-24T13:37:53.282Z,2.42
2018-04-24T13:42:56.518Z,2.33
2018-04-24T13:47:59.829Z,2.40
2018-04-24T13:53:03.548Z,2.30
2018-04-24T13:58:06.760Z,2.22
2018-04-24T14:03:10.070Z,2.08
2018-04-24T14:08:13.701Z,1.80
2018-04-24T14:13:16.960Z,2.12
2018-04-24T14:18:20.178Z,2.03
2018-04-24T14:23:24.495Z,2.03
2018-04-24T14:28:27.738Z,1.98
2018-04-24T14:33:31.437Z,2.30
2018-04-24T14:38:35.075Z,2.60
2018-04-24T14:43:38.362Z,2.47
2018-04-24T14:48:42.076Z,1.95
2018-04-24T14:53:45.292Z,2.47
2018-04-24T14:58:48.918Z,1.90
2018-04-24T15:03:52.517Z,2.08
2018-04-24T15:08:56.163Z,1.95
2018-04-24T15:13:59.373Z,1.67
2018-04-24T15:19:02.592Z,2.30
2018-04-24T15:24:05.851Z,3.65
2018-04-24T15:29:09.466Z,2.53
2018-04-24T15:34:13.087Z,2.28
2018-04-24T15:39:16.739Z,1.92
2018-04-24T15:44:19.993Z,1.77
2018-04-24T15:49:23.743Z,2.42
2018-04-24T15:54:26.980Z,1.67
2018-04-24T15:59:30.229Z,1.90
2018-04-24T16:04:34.352Z,1.55
2018-04-24T16:09:37.653Z,1.70
2018-04-24T16:14:41.062Z,2.50
2018-04-24T16:19:44.676Z,1.83
2018-04-24T16:24:47.982Z,1.87
2018-04-24T16:29:51.837Z,2.50
2018-04-24T16:34:54.988Z,2.00
2018-04-24T16:39:58.210Z,2.20
2018-04-24T16:45:01.843Z,2.15
2018-04-24T16:50:05.092Z,1.92
2018-04-24T16:55:09.131Z,2.20
2018-04-24T17:00:12.344Z,2.30
2018-04-24T17:05:15.592Z,2.10
2018-04-24T17:10:18.842Z,2.08
2018-04-24T17:15:22.067Z,2.50
2018-04-24T17:20:25.312Z,2.15
2018-04-24T17:25:36.877Z,2.22
2018-04-24T17:30:42.051Z,2.83
2018-04-24T17:35:45.313Z,2.58
2018-04-24T17:40:49.009Z,2.78
2018-04-24T17:45:52.320Z,2.25
2018-04-24T17:50:55.621Z,2.20
2018-04-24T17:55:58.898Z,2.53
2018-04-24T18:01:02.447Z,2.10
2018-04-24T18:06:06.169Z,2.35
2018-04-24T18:11:09.839Z,2.85
2018-04-24T18:16:13.188Z,4.05
2018-04-24T18:21:18.134Z,2.80
2018-04-24T18:26:22.058Z,2.80
2018-04-24T18:31:26.791Z,2.45
2018-04-24T18:36:30.162Z,3.17
2018-04-24T18:41:33.523Z,2.67
2018-04-24T18:46:37.196Z,3.08
2018-04-24T18:51:40.542Z,2.80
2018-04-24T18:56:44.760Z,2.45
2018-04-24T19:01:48.695Z,2.83
2018-04-24T19:06:52.402Z,2.83
2018-04-24T19:11:56.222Z,3.05
2018-04-24T19:16:59.705Z,2.62
2018-04-24T19:22:03.172Z,2.75
2018-04-24T19:27:06.958Z,2.72
2018-04-24T19:32:16.518Z,2.78
2018-04-24T19:37:28.223Z,2.20
2018-04-24T19:42:31.833Z,1.90
2018-04-24T19:47:35.332Z,2.30
2018-04-24T19:52:39.068Z,1.98
2018-04-24T19:57:42.888Z,2.40
2018-04-24T20:02:46.923Z,2.40
2018-04-24T20:07:50.987Z,2.15
2018-04-24T20:12:54.453Z,2.20
2018-04-24T20:17:58.295Z,2.20
2018-04-24T20:23:01.690Z,2.20
2018-04-24T20:28:05.608Z,2.70
2018-04-24T20:33:09.456Z,2.70
2018-04-24T20:38:13.134Z,2.00
2018-04-24T20:43:21.013Z,2.28
2018-04-24T20:48:24.358Z,1.92
2018-04-24T20:53:28.804Z,2.45
2018-04-24T20:58:32.448Z,2.10
2018-04-24T21:03:36.041Z,2.53
2018-04-24T21:08:39.346Z,1.80
2018-04-24T21:13:43.354Z,2.40
2018-04-24T21:18:47.388Z,2.30
2018-04-24T21:23:51.376Z,2.35
2018-04-24T21:28:54.951Z,2.08
2018-04-24T21:33:58.455Z,2.37
2018-04-24T21:39:02.042Z,2.58
2018-04-24T21:44:06.005Z,2.50
2018-04-24T21:49:10.703Z,2.47
2018-04-24T21:54:14.026Z,2.28
2018-04-24T21:59:17.320Z,2.83
2018-04-24T22:04:21.114Z,2.53
2018-04-24T22:09:24.685Z,2.65
2018-04-24T22:14:28.083Z,2.53
2018-04-24T22:19:31.343Z,2.30
2018-04-24T22:24:34.681Z,2.37
2018-04-24T22:29:38.591Z,1.98
2018-04-24T22:34:41.871Z,2.90
2018-04-24T22:39:45.142Z,2.65
2018-04-24T22:44:49.800Z,2.75
2018-04-24T22:49:53.992Z,2.92
2018-04-24T22:54:57.796Z,2.72
2018-04-24T23:00:01.125Z,3.30
2018-04-24T23:05:06.232Z,2.87
2018-04-24T23:10:09.126Z,2.85
2018-04-24T23:15:25.238Z,2.97
2018-04-24T23:20:29.291Z,3.10
2018-04-24T23:25:32.573Z,2.75
2018-04-24T23:30:36.006Z,2.90
2018-04-24T23:35:39.259Z,2.90
2018-04-24T23:40:42.513Z,3.20
2018-04-24T23:45:45.957Z,2.90
2018-04-24T23:50:49.347Z,2.72
2018-04-24T23:55:52.989Z,3.15
